Bladen, Nebraska
Current Conditions -  °F | °C
As of 10:53 PM on Thursday 27 Nov 2014 (Local Time) from KHSI Reporting Station
Clear Clear  
Wind Chill: 23°   Ceiling: Unl
Heat Index: 32°   Visibility: 10mi
Dew Point: 18°   Wind: 13mph
Humidity: 56%   Direction: 170°S
Pressure: 30"   Gusts: NA
Location:  40.32°N, 98.59°W
Report Text: KHSI 280453Z AUTO 17011KT 10SM CLR 00/M08 A3000 RMK AO2 SLP178 T00001078
Loading
Personal Weather Stations






























Interactive Weather Map New forecast layout! Learn more

10-Day Weather Forecast

Advertisements
Track Severe Weather on mobile